LEWISTON (LEW)

Elevation: 1870' · TRINITY R basin · Operator: US Bureau of Reclamation

Provisional data, subject to change.
Query executed Monday at 7:31:20   clock

Select a sensor type for a plot of data.
Note: Reservoir Flows are daily averages.

Earlier

Date RES ELE    STORAGE    RES CHG    OUTFLOW    INFLOW    EVAP    RIV REL    SPILL    DIS PWR   
 FEET   AF   AF   CFS   CFS   CFS   CFS   CFS   CFS  
05/01/2016 1901.39 14203 -142 2170 2104 6 2158 2036 110
05/02/2016 1901.44 14240 37 2467 2490 4 2408 2286 41
05/03/2016 1901.02 13926 -314 2903 2750 5 2869 2747 0
05/04/2016 1901.30 14135 209 3462 3569 2 3436 3314 67
05/05/2016 1901.03 13933 -202 3303 3202 1 3281 3152 82
05/06/2016 1900.55 13580 -353 4009 3832 1 3992 3842 0
05/07/2016 1901.33 14158 578 3834 4125 0 3809 3659 0
05/08/2016 1901.20 14061 -97 5681 5635 3 5643 5493 0
05/09/2016 1901.59 14352 291 6803 6955 5 6793 6643 0
05/10/2016 1901.39 14203 -149 7034 6964 5 7011 6861 0
05/11/2016 1901.28 14120 -83 6949 6912 5 6931 6781 0
05/12/2016 1901.86 14554 434 5956 6181 6 5935 5785 0
05/13/2016 1901.11 13993 -561 6067 5790 6 6057 5907 0
05/14/2016 1901.81 14517 524 6180 6450 6 6170 6020 0
05/15/2016 1901.00 13911 -606 6277 5975 4 6258 6108 0
05/16/2016 1901.38 14195 284 5656 5803 4 5645 5495 0
05/17/2016 1901.34 14165 -30 4422 4413 6 4411 4261 0
05/18/2016 1901.07 13963 -202 4223 4127 6 4206 4056 0
05/19/2016 1900.82 13779 -184 4245 4159 7 4235 4085 0
05/20/2016 1900.81 13771 -8 4163 4165 6 4146 3996 0
05/21/2016 1900.92 13852 81 4051 4094 2 4041 3891 0
05/22/2016 1901.24 14091 239 3971 4091 0 3961 3811 0
05/23/2016 1901.39 14203 112 3970 4030 4 3960 3810 0
05/24/2016 1901.40 14210 7 3924 3932 4 3914 3764 47
05/25/2016 1901.49 14278 68 3457 3494 3 3447 3297 110
05/26/2016 1901.14 14016 -262 3625 3497 4 3615 3465 110
05/27/2016 1901.01 13918 -98 3391 3347 5 3381 3231 110
05/28/2016 1901.54 14315 397 3438 3643 5 3335 3185 110
05/29/2016 1901.63 14382 67 3400 3442 8 3294 3144 110
05/30/2016 -- -- -- -- -- -- -- -- --

Later | Latest

Warning! This data is preliminary and subject to revision.

Show LEW Map | Plot LEW Data | 1 Month LEW Data | Real-Time LEW Data | LEW Info